Delta Virtual Airport Information Service

St. Petersburg Clearwater International Airport

ICAO: KPIE Country: United States
Latitude: 27.91 Longitude: -82.6874
Latest Arrival : AAY256 (A) (KABE-KPIE) Latest Departure : AAY452 (A) (KPIE-KPIA)


WX CaptureLIVE
Data provided by noaa.gov | Fetched at 04:40:49

METAR : KPIE 030953Z AUTO 03003KT 1/4SM R18/4500FT FG VV001 13/13 A3012 RMK AO2 SLP199 T01280128 $

TAF : KPIE 030759Z 0308/0406 VRB03KT 3SM BR FEW007 BKN015 TEMPO 0308/0312 1/4SM FG BKN003 FM031300 VRB04KT P6SM FEW250 FM031500 02005KT P6SM FEW250 FM031900 33006KT P6SM FEW250 FM040200 VRB03KT P6SM FEW250


Runway Data for KPIE
Data provided by openaviationdata.com

Runway ID Mag Var Hdg Length Elevation Surface ILS Freq ILS Id ILS Slope
4 -3 42° 5509 ft 10 ft Asphalt -- -- --
9 -3 91° 5159 ft 10 ft Asphalt -- -- --
17L -3 174° 8822 ft 10 ft Asphalt 109.1 IPIE 3
17R -3 174° 4009 ft 10 ft Asphalt -- -- --
22 -3 222° 5509 ft 10 ft Asphalt -- -- --
27 -3 271° 5159 ft 10 ft Asphalt -- -- --
35L -3 354° 4009 ft 10 ft Asphalt -- -- --
35R -3 354° 8822 ft 10 ft Asphalt -- -- --

St. Petersburg Clearwater International Airport, United States
Use only for reference purposes



Not for navigational purposes.